Current Weather

Goshen Municipal Airport

Goshen Municipal Airport, Indiana (KGSH)

Report from: Thursday, May 19, 2022 12:53 PM EDT
Current time: Thursday, May 19, 2022 1:44 PM EDT

Nearby weather
Weather history
Weather forecast

Present weatherHaze
Temperature22.2°C (72.0°F)
Dew point16.7°C (62.1°F)
Winds 12 kts (6.2 m/s, 13.8 mph) South-Southwest (200°)
Visibility5 mi. (8 km)
Clouds Sky clear
Altimeter29.71 in.Hg (1006 mB)
Relative humidity71 %
Density altitude1,341 ft. (409 m)
Sea-level pressure100.6 kPa (1006 mB, 29.70 in.Hg)
Remarks Fully automated report
Automated weather observing station with precipitation discriminator
Flight conditions Visual Meteorological Conditions
Raw dataKGSH 191653Z AUTO 20012KT 5SM HZ CLR 22/17 A2971 RMK AO2 SLP058 T02220167
An error has occurred. This application may no longer respond until reloaded. Reload 🗙